LFLS/GNB METAR and TAF weather

Enter ICAO airport designator
Station Type Date Time Source
LFLS METAR 2020/03/31 08:30 UTC NOAA

LFLS 310830Z AUTO 02014KT 9999 OVC033 04/M02 Q1019 NOSIG


Station Type Date Time Source
LFLS Decoded METAR 2020/03/31 08:30 UTC NOAA

Grenoble / St. Geoirs, France (LFLS) 45-22N 005-20E 386M
Mar 31, 2020 - 04:30 AM EDT / 2020.03.31 0830 UTC
Wind: from the NNE (020 degrees) at 16 MPH (14 KT):0
Visibility: greater than 7 mile(s):0
Sky conditions: overcast
Temperature: 39 F (4 C)
Dew Point: 28 F (-2 C)
Relative Humidity: 64%
Pressure (altimeter): 30.09 in. Hg (1019 hPa)
ob: LFLS 310830Z AUTO 02014KT 9999 OVC033 04/M02 Q1019 NOSIG
cycle: 8

Station Type Date Time Source
LFLS TAF 2020/03/31 09:47 UTC NOAA

TAF LFLS 310800Z 3109/0109 02010KT 9999 BKN033
BECMG 3109/3111 CAVOK
BECMG 3118/3120 VRB02KT
BECMG 0100/0103 09005KT

Example: see airport list